Time;durP1;ratioP1;P1;durP2;ratioP2;P2;SDS_P1;SDS_P2;PMS_P1;PMS_P2;Temp;Humidity;BMP_temperature;BMP_pressure;BME280_temperature;BME280_humidity;BME280_pressure;Samples;Min_cycle;Max_cycle;Signal;HPM_P1;HPM_P2
2023/06/23 00:15:07;;;;;;;8.80;4.70;;;;;;;16.18;100.00;100566.30;102784;1292;601002;-44
2023/06/23 00:17:38;;;;;;;12.00;4.70;;;;;;;16.16;100.00;100580.64;104843;1270;60410;-44
2023/06/23 00:20:12;;;;;;;6.90;4.50;;;;;;;16.15;100.00;100577.21;104770;1271;59965;-44
2023/06/23 00:22:41;;;;;;;7.50;4.60;;;;;;;16.16;100.00;100571.74;104753;1267;72167;-43
2023/06/23 00:25:09;;;;;;;8.10;4.20;;;;;;;16.20;100.00;100564.12;104874;1269;65203;-41
2023/06/23 00:27:41;;;;;;;12.00;5.00;;;;;;;16.25;100.00;100562.86;104538;1266;296173;-41
2023/06/23 00:30:13;;;;;;;6.40;4.70;;;;;;;16.31;100.00;100557.94;104833;1263;61688;-44
2023/06/23 00:32:40;;;;;;;7.60;4.70;;;;;;;16.37;100.00;100551.61;104893;1265;59398;-44
2023/06/23 00:35:08;;;;;;;12.70;5.10;;;;;;;16.46;100.00;100548.98;104782;1269;72872;-44
2023/06/23 00:37:39;;;;;;;8.10;5.10;;;;;;;16.50;100.00;100544.09;104801;1268;64040;-44
2023/06/23 00:40:10;;;;;;;8.10;5.00;;;;;;;16.54;100.00;100545.84;104874;1263;72720;-44
2023/06/23 00:42:52;;;;;;;6.70;5.10;;;;;;;16.59;100.00;100539.73;105040;1268;59741;-43
2023/06/23 00:45:26;;;;;;;5.80;4.40;;;;;;;16.63;100.00;100535.70;105092;1268;59628;-43
2023/06/23 00:47:54;;;;;;;4.80;4.40;;;;;;;16.64;100.00;100537.60;104807;1269;74020;-42
2023/06/23 00:50:23;;;;;;;12.40;5.20;;;;;;;16.59;100.00;100540.77;104918;1269;65240;-42
2023/06/23 00:52:52;;;;;;;10.60;5.20;;;;;;;16.54;100.00;100539.05;104836;1268;72676;-42
2023/06/23 00:55:20;;;;;;;11.30;5.40;;;;;;;16.55;100.00;100540.77;105115;1264;59668;-41
2023/06/23 00:57:49;;;;;;;9.80;5.50;;;;;;;16.55;100.00;100539.01;104841;1265;60036;-42
2023/06/23 01:00:18;;;;;;;9.70;5.50;;;;;;;16.58;100.00;100537.48;104820;1266;72999;-43
2023/06/23 01:02:50;;;;;;;16.30;5.50;;;;;;;16.60;100.00;100535.14;104760;1271;65381;-42
2023/06/23 01:07:38;;;;;;;9.40;5.70;;;;;;;16.66;100.00;100514.30;102534;1292;601016;-42
2023/06/23 01:10:15;;;;;;;11.00;5.60;;;;;;;16.62;100.00;100532.60;104716;1273;59348;-42
2023/06/23 01:12:56;;;;;;;10.30;5.80;;;;;;;16.63;100.00;100530.31;104715;1267;60006;-43
2023/06/23 01:15:32;;;;;;;12.10;6.00;;;;;;;16.63;100.00;100527.36;104757;1272;72215;-43
2023/06/23 01:18:13;;;;;;;15.00;5.40;;;;;;;16.64;100.00;100523.83;104730;1272;65219;-42
2023/06/23 01:20:42;;;;;;;13.30;5.40;;;;;;;16.66;100.00;100523.72;104583;1270;233238;-42
2023/06/23 01:23:21;;;;;;;7.10;5.10;;;;;;;16.70;100.00;100518.70;104794;1270;59568;-42
2023/06/23 01:26:09;;;;;;;14.70;5.80;;;;;;;16.72;100.00;100514.08;104906;1269;60895;-42
2023/06/23 01:28:50;;;;;;;10.10;5.80;;;;;;;16.76;100.00;100513.38;104849;1269;69889;-42
2023/06/23 01:31:25;;;;;;;16.40;5.40;;;;;;;16.82;100.00;100509.64;104813;1270;64669;-43
2023/06/23 01:33:58;;;;;;;13.80;5.70;;;;;;;16.91;100.00;100502.98;104824;1269;71415;-42
2023/06/23 01:36:30;;;;;;;14.80;5.90;;;;;;;16.95;100.00;100501.75;104898;1269;60027;-43
2023/06/23 01:39:00;;;;;;;18.60;6.20;;;;;;;16.99;100.00;100502.83;104772;1270;60047;-43
2023/06/23 01:41:32;;;;;;;9.00;5.60;;;;;;;17.06;100.00;100502.20;104830;1267;71791;-43
2023/06/23 01:44:04;;;;;;;10.70;6.10;;;;;;;17.13;100.00;100501.85;104803;1269;63982;-43
2023/06/23 01:46:35;;;;;;;12.30;5.10;;;;;;;17.19;100.00;100500.55;104768;1265;71338;-43
2023/06/23 01:49:10;;;;;;;8.60;6.00;;;;;;;17.24;100.00;100499.11;104842;1272;59878;-43
2023/06/23 01:51:45;;;;;;;13.70;5.50;;;;;;;17.24;100.00;100501.72;104809;1267;60675;-45
2023/06/23 01:54:15;;;;;;;10.40;6.10;;;;;;;17.23;100.00;100500.36;104796;1270;71912;-43
2023/06/23 01:56:43;;;;;;;15.40;5.80;;;;;;;17.23;100.00;100503.66;104850;1265;63771;-43
2023/06/23 01:59:11;;;;;;;16.20;5.40;;;;;;;17.24;100.00;100504.50;104760;1267;72810;-43
2023/06/23 02:01:40;;;;;;;16.30;6.30;;;;;;;17.28;100.00;100509.02;104851;1267;61660;-43
2023/06/23 02:04:08;;;;;;;14.10;5.40;;;;;;;17.33;100.00;100506.52;104631;1267;60303;-43
2023/06/23 02:06:40;;;;;;;9.60;5.90;;;;;;;17.36;100.00;100508.85;104654;1273;71603;-44
2023/06/23 02:09:11;;;;;;;10.80;5.70;;;;;;;17.39;100.00;100515.86;104776;1267;63913;-43
2023/06/23 02:11:38;;;;;;;11.80;5.90;;;;;;;17.39;100.00;100517.25;104781;1268;72337;-44
2023/06/23 02:14:07;;;;;;;16.80;5.90;;;;;;;17.42;100.00;100522.02;104830;1267;60450;-44
2023/06/23 02:16:35;;;;;;;14.40;6.90;;;;;;;17.43;100.00;100524.93;104832;1266;59646;-43
2023/06/23 02:19:04;;;;;;;14.80;6.00;;;;;;;17.46;100.00;100534.39;105153;1267;71532;-43
2023/06/23 02:21:32;;;;;;;13.50;5.90;;;;;;;17.47;100.00;100540.09;105108;1269;64027;-43
2023/06/23 02:24:05;;;;;;;12.20;6.60;;;;;;;17.50;100.00;100550.23;105089;1263;72714;-43
2023/06/23 02:26:38;;;;;;;14.20;6.20;;;;;;;17.54;100.00;100568.23;105071;1264;61662;-44
2023/06/23 02:29:07;;;;;;;11.80;6.90;;;;;;;17.60;100.00;100579.13;105071;1263;59643;-43
2023/06/23 02:31:36;;;;;;;15.00;6.30;;;;;;;17.67;100.00;100585.23;105038;1267;73093;-43
2023/06/23 02:34:04;;;;;;;11.70;6.60;;;;;;;17.75;100.00;100591.34;105102;1267;63944;-44
2023/06/23 02:36:51;;;;;;;14.40;7.00;;;;;;;17.83;100.00;100589.38;105064;1267;71786;-43
2023/06/23 02:39:22;;;;;;;12.00;6.00;;;;;;;17.96;100.00;100576.05;105116;1264;60503;-43
2023/06/23 02:41:52;;;;;;;10.00;6.80;;;;;;;18.10;100.00;100568.44;105174;1265;59637;-42
2023/06/23 02:44:23;;;;;;;20.40;6.70;;;;;;;18.25;100.00;100566.84;105193;1266;72284;-43
2023/06/23 02:46:54;;;;;;;13.60;6.90;;;;;;;18.36;100.00;100561.95;105241;1266;63959;-43
2023/06/23 02:49:25;;;;;;;13.80;7.00;;;;;;;18.48;100.00;100549.29;105148;1264;72688;-44
2023/06/23 02:51:56;;;;;;;15.40;6.40;;;;;;;18.59;100.00;100534.58;105176;1266;60074;-43
2023/06/23 02:54:25;;;;;;;14.10;6.80;;;;;;;18.72;100.00;100506.84;105127;1264;60062;-43
2023/06/23 02:56:53;;;;;;;13.60;6.70;;;;;;;18.85;100.00;100496.58;105171;1263;71816;-43
2023/06/23 02:59:21;;;;;;;12.30;6.50;;;;;;;18.96;100.00;100486.73;105155;1264;64037;-43
2023/06/23 03:01:52;;;;;;;17.40;7.50;;;;;;;19.04;100.00;100478.62;105101;1264;71448;-42
2023/06/23 03:04:21;;;;;;;9.40;6.70;;;;;;;19.10;100.00;100475.19;105131;1267;59723;-44
2023/06/23 03:06:49;;;;;;;10.10;7.20;;;;;;;19.13;100.00;100478.16;105108;1267;59573;-43
2023/06/23 03:09:17;;;;;;;11.50;6.40;;;;;;;19.16;100.00;100482.00;105115;1269;71925;-43
2023/06/23 03:11:45;;;;;;;7.00;6.30;;;;;;;19.19;100.00;100481.34;105061;1262;64319;-43
2023/06/23 03:14:13;;;;;;;13.40;6.60;;;;;;;19.20;100.00;100483.54;105349;1264;71476;-43
2023/06/23 03:16:46;;;;;;;9.80;6.70;;;;;;;19.20;100.00;100482.31;105426;1261;60010;-44
2023/06/23 03:19:21;;;;;;;16.20;7.10;;;;;;;19.20;100.00;100481.25;105204;1261;59734;-43
2023/06/23 03:22:01;;;;;;;15.50;7.10;;;;;;;19.22;100.00;100483.29;105193;1264;71854;-42
2023/06/23 03:24:31;;;;;;;14.60;6.60;;;;;;;19.24;100.00;100477.73;105422;1257;64112;-45
2023/06/23 03:26:59;;;;;;;16.50;6.60;;;;;;;19.30;100.00;100477.95;105125;1257;72642;-44
2023/06/23 03:29:28;;;;;;;10.50;6.60;;;;;;;19.36;100.00;100477.77;109002;1257;62321;-42
2023/06/23 03:31:58;;;;;;;14.80;6.90;;;;;;;19.45;100.00;100481.34;108921;1257;60259;-42
2023/06/23 03:34:27;;;;;;;11.50;6.60;;;;;;;19.53;100.00;100487.02;109054;1258;73029;-42
2023/06/23 03:36:56;;;;;;;17.60;7.50;;;;;;;19.61;100.00;100485.02;108979;1257;63974;-42
2023/06/23 03:39:24;;;;;;;18.30;6.70;;;;;;;19.68;100.00;100484.77;108979;1257;72764;-42
2023/06/23 03:41:52;;;;;;;15.70;7.10;;;;;;;19.78;100.00;100480.58;108958;1258;61660;-42
2023/06/23 03:44:25;;;;;;;15.40;7.10;;;;;;;19.91;100.00;100480.56;108899;1257;60059;-43
2023/06/23 03:46:56;;;;;;;14.70;7.00;;;;;;;20.06;100.00;100482.52;108912;1258;71975;-43
2023/06/23 03:49:30;;;;;;;9.70;6.50;;;;;;;20.21;100.00;100477.95;109053;1257;65517;-43
2023/06/23 03:51:58;;;;;;;9.60;6.50;;;;;;;20.34;100.00;100476.13;108969;1257;71081;-43
2023/06/23 03:54:26;;;;;;;11.30;6.40;;;;;;;20.50;100.00;100479.44;108989;1257;58811;-42
2023/06/23 03:56:54;;;;;;;18.90;6.80;;;;;;;20.66;100.00;100481.11;109034;1259;60017;-43
2023/06/23 03:59:23;;;;;;;11.30;6.40;;;;;;;20.79;100.00;100485.24;108945;1257;71807;-43
2023/06/23 04:01:51;;;;;;;15.30;6.70;;;;;;;20.88;100.00;100483.87;108920;1257;63890;-43
2023/06/23 04:04:19;;;;;;;11.50;6.40;;;;;;;20.96;100.00;100482.30;109019;1257;72704;-43
2023/06/23 04:06:46;;;;;;;12.80;6.60;;;;;;;21.03;100.00;100488.90;109044;1257;59012;-43
2023/06/23 04:09:15;;;;;;;13.10;7.10;;;;;;;21.07;100.00;100496.20;109046;1257;60081;-42
2023/06/23 04:14:59;;;;;;;17.40;7.40;;;;;;;21.35;100.00;100514.83;102789;1294;600983;-42
2023/06/23 04:17:27;;;;;;;9.80;6.60;;;;;;;21.50;100.00;100526.19;104764;1264;59346;-43
2023/06/23 04:19:56;;;;;;;14.10;6.80;;;;;;;21.61;100.00;100540.42;104873;1265;59290;-42
2023/06/23 04:22:26;;;;;;;15.60;6.80;;;;;;;21.69;100.00;100556.79;104909;1269;70513;-43
2023/06/23 04:24:55;;;;;;;13.10;6.50;;;;;;;21.70;100.00;100576.02;104906;1267;65201;-43
2023/06/23 04:27:23;;;;;;;11.20;6.90;;;;;;;21.72;100.00;100578.03;105097;1266;70587;-43
2023/06/23 04:29:51;;;;;;;12.70;6.80;;;;;;;21.73;100.00;100582.84;104865;1264;271719;-43
2023/06/23 04:32:18;;;;;;;13.30;7.00;;;;;;;21.76;100.00;100567.05;104947;1263;59368;-43
2023/06/23 04:34:46;;;;;;;9.20;6.80;;;;;;;21.82;100.00;100564.35;105511;1256;72671;-43
2023/06/23 04:37:20;;;;;;;15.90;6.70;;;;;;;21.85;100.00;100581.05;105555;1256;64050;-43
2023/06/23 04:40:21;;;;;;;7.40;5.80;;;;;;;21.81;100.00;100577.58;105534;1260;70776;-43
2023/06/23 04:42:53;;;;;;;16.40;6.50;;;;;;;21.79;100.00;100566.30;105255;1256;59732;-43
2023/06/23 04:45:23;;;;;;;13.50;6.70;;;;;;;21.86;100.00;100556.27;105542;1263;59660;-44
2023/06/23 04:48:00;;;;;;;13.40;7.10;;;;;;;22.02;100.00;100548.89;105602;1260;73058;-44
2023/06/23 04:50:30;;;;;;;8.60;6.60;;;;;;;22.18;100.00;100544.85;105515;1262;65153;-44
2023/06/23 04:53:03;;;;;;;17.30;7.10;;;;;;;22.32;100.00;100559.90;105569;1257;70771;-42
2023/06/23 04:55:32;;;;;;;13.70;6.80;;;;;;;22.45;100.00;100564.88;105656;1256;60544;-42
2023/06/23 04:58:03;;;;;;;11.20;6.80;;;;;;;22.57;100.00;100574.48;105553;1260;59614;-43
2023/06/23 05:00:31;;;;;;;20.60;7.30;;;;;;;22.56;100.00;100615.20;105564;1260;73015;-42
2023/06/23 05:02:59;;;;;;;9.90;6.50;;;;;;;22.57;100.00;100598.91;105437;1257;63920;-43
2023/06/23 05:05:28;;;;;;;13.30;6.50;;;;;;;22.71;100.00;100586.02;105286;1258;71456;-43
2023/06/23 05:07:56;;;;;;;11.50;6.60;;;;;;;22.78;100.00;100609.48;105460;1258;59758;-43
2023/06/23 05:10:24;;;;;;;11.00;6.50;;;;;;;22.80;100.00;100625.73;105542;1257;59874;-43
2023/06/23 05:12:52;;;;;;;10.20;6.60;;;;;;;22.86;100.00;100613.73;105522;1257;71800;-43
2023/06/23 05:15:20;;;;;;;11.10;6.30;;;;;;;22.93;100.00;100623.79;105533;1258;64102;-43
2023/06/23 05:17:48;;;;;;;17.20;6.50;;;;;;;22.99;100.00;100632.88;105592;1257;73527;-43
2023/06/23 05:20:17;;;;;;;17.50;7.40;;;;;;;23.12;100.00;100638.00;105612;1260;59743;-43
2023/06/23 05:22:46;;;;;;;10.60;6.60;;;;;;;23.26;100.00;100640.41;105469;1257;59647;-43
2023/06/23 05:25:14;;;;;;;12.10;6.80;;;;;;;23.28;100.00;100664.55;105214;1264;71448;-43
2023/06/23 05:27:44;;;;;;;13.80;6.40;;;;;;;23.37;100.00;100650.61;105514;1258;65395;-43
2023/06/23 05:30:17;;;;;;;16.70;6.40;;;;;;;23.56;100.00;100649.42;105460;1263;72328;-43
2023/06/23 05:32:46;;;;;;;8.90;6.20;;;;;;;23.88;100.00;100642.62;105477;1262;59711;-43
2023/06/23 05:35:14;;;;;;;20.40;6.10;;;;;;;24.21;100.00;100644.36;105516;1260;59633;-43
2023/06/23 05:37:42;;;;;;;14.20;6.30;;;;;;;24.52;100.00;100675.23;105761;1253;71789;-42
2023/06/23 05:40:12;;;;;;;11.20;6.30;;;;;;;24.69;100.00;100720.56;105695;1254;64003;-43
2023/06/23 05:42:40;;;;;;;15.20;6.10;;;;;;;24.76;100.00;100762.02;105769;1254;72591;-44
2023/06/23 05:45:10;;;;;;;11.60;5.80;;;;;;;24.72;100.00;100796.88;105660;1254;59555;-42
2023/06/23 05:47:42;;;;;;;14.80;5.80;;;;;;;24.80;100.00;100783.80;105654;1256;59720;-43
2023/06/23 05:50:21;;;;;;;12.70;5.80;;;;;;;24.98;100.00;100783.38;105742;1256;71069;-43
2023/06/23 05:53:00;;;;;;;10.80;5.80;;;;;;;25.07;100.00;100797.77;105881;1255;64019;-43
2023/06/23 05:55:28;;;;;;;9.40;5.60;;;;;;;25.30;100.00;100795.84;106073;1257;73716;-42
2023/06/23 05:58:00;;;;;;;9.90;5.80;;;;;;;25.54;100.00;100782.74;105671;1257;59733;-43
2023/06/23 06:00:38;;;;;;;16.10;5.20;;;;;;;25.57;100.00;100817.37;105646;1254;59973;-43
2023/06/23 06:03:07;;;;;;;21.30;6.60;;;;;;;25.62;100.00;100824.55;105633;1259;72336;-43
2023/06/23 06:05:35;;;;;;;14.80;5.50;;;;;;;25.72;100.00;100819.73;105628;1259;63929;-43
2023/06/23 06:08:03;;;;;;;10.90;5.80;;;;;;;25.86;100.00;100815.30;105583;1254;71256;-43
2023/06/23 06:10:31;;;;;;;9.30;5.20;;;;;;;26.00;100.00;100816.69;105644;1254;60020;-44
2023/06/23 06:13:00;;;;;;;8.70;5.40;;;;;;;26.22;100.00;100808.83;105733;1257;59669;-44
2023/06/23 06:15:28;;;;;;;13.40;5.70;;;;;;;26.39;97.12;100793.21;105689;1254;71764;-44
2023/06/23 06:17:56;;;;;;;15.00;6.10;;;;;;;26.45;94.05;100804.91;105609;1253;64028;-44
2023/06/23 06:20:24;;;;;;;15.20;5.70;;;;;;;26.49;94.90;100816.10;105660;1254;72726;-44
2023/06/23 06:22:52;;;;;;;11.40;5.60;;;;;;;26.38;93.34;100825.42;105584;1254;59637;-44
2023/06/23 06:25:29;;;;;;;16.10;5.80;;;;;;;26.29;98.01;100832.53;105764;1257;59726;-44
2023/06/23 06:27:57;;;;;;;10.90;5.20;;;;;;;26.28;99.09;100829.41;105543;1259;75034;-43
2023/06/23 06:30:26;;;;;;;9.60;5.10;;;;;;;26.24;99.18;100831.27;105507;1254;64021;-43
2023/06/23 06:32:54;;;;;;;23.60;5.60;;;;;;;26.29;100.00;100828.46;105574;1254;71274;-43
2023/06/23 06:35:22;;;;;;;28.20;5.90;;;;;;;26.45;99.98;100814.61;105661;1254;59775;-43
2023/06/23 06:37:50;;;;;;;14.00;5.70;;;;;;;26.57;98.22;100797.20;105768;1256;59557;-43
2023/06/23 06:40:22;;;;;;;56.30;7.20;;;;;;;26.56;99.89;100811.96;105664;1254;71869;-44
2023/06/23 06:42:49;;;;;;;44.60;7.10;;;;;;;26.67;100.00;100814.67;105636;1254;65130;-47
2023/06/23 06:45:17;;;;;;;31.10;6.70;;;;;;;26.82;100.00;100800.48;105632;1257;71392;-44
2023/06/23 06:47:45;;;;;;;45.20;6.30;;;;;;;26.98;100.00;100805.10;105573;1260;60014;-43
2023/06/23 06:50:16;;;;;;;27.30;7.20;;;;;;;27.14;98.15;100785.52;105740;1257;59593;-45
2023/06/23 06:52:43;;;;;;;44.10;7.10;;;;;;;27.29;97.59;100789.92;105583;1258;71241;-44
2023/06/23 06:55:18;;;;;;;22.30;5.40;;;;;;;27.43;91.15;100768.23;105592;1253;63989;-45
2023/06/23 06:57:47;;;;;;;32.60;5.80;;;;;;;27.44;89.88;100785.84;105634;1254;71413;-45
2023/06/23 07:00:19;;;;;;;26.20;5.10;;;;;;;27.52;90.21;100787.33;105663;1255;60027;-44
2023/06/23 07:02:47;;;;;;;30.20;5.90;;;;;;;27.66;89.18;100788.13;105830;1256;59775;-43
2023/06/23 07:05:16;;;;;;;23.10;6.00;;;;;;;27.78;85.16;100765.27;105609;1254;71572;-43
2023/06/23 07:07:44;;;;;;;25.60;6.30;;;;;;;27.85;86.57;100786.66;105621;1259;64931;-43
2023/06/23 07:10:12;;;;;;;45.90;7.40;;;;;;;27.92;83.10;100768.15;105632;1254;71465;-43
2023/06/23 07:12:40;;;;;;;17.50;5.70;;;;;;;27.99;80.93;100767.50;105645;1254;60094;-43
2023/06/23 07:15:08;;;;;;;36.70;5.60;;;;;;;28.11;78.10;100745.56;105751;1254;60058;-43
2023/06/23 07:17:35;;;;;;;38.80;7.10;;;;;;;28.19;73.22;100704.98;105792;1256;73610;-43
2023/06/23 07:20:07;;;;;;;29.40;6.40;;;;;;;28.16;70.72;100694.04;105670;1257;65135;-44
2023/06/23 07:22:35;;;;;;;39.80;6.50;;;;;;;28.13;71.91;100732.64;105687;1258;71431;-44
2023/06/23 07:25:04;;;;;;;38.10;6.60;;;;;;;28.23;71.33;100724.48;105627;1253;59714;-43
2023/06/23 07:27:31;;;;;;;29.10;5.80;;;;;;;28.31;70.97;100732.11;105641;1257;60007;-44
2023/06/23 07:29:59;;;;;;;35.20;5.90;;;;;;;28.32;70.50;100730.23;105691;1257;73022;-44
2023/06/23 07:32:27;;;;;;;28.70;6.60;;;;;;;28.41;72.23;100758.71;105791;1253;64041;-43
2023/06/23 07:34:55;;;;;;;17.70;5.50;;;;;;;28.62;72.45;100757.60;105604;1254;71387;-44
2023/06/23 07:37:22;;;;;;;25.80;5.60;;;;;;;28.81;69.64;100721.95;105549;1254;60274;-44
2023/06/23 07:39:50;;;;;;;26.90;6.20;;;;;;;28.91;67.77;100699.73;105610;1258;59637;-44
2023/06/23 07:42:18;;;;;;;24.90;5.70;;;;;;;28.99;66.66;100688.39;105768;1254;71901;-43
2023/06/23 07:44:45;;;;;;;26.20;5.20;;;;;;;29.03;63.57;100636.87;105639;1254;63981;-44
2023/06/23 07:47:13;;;;;;;13.20;5.40;;;;;;;28.94;63.69;100664.38;105594;1257;71435;-43
2023/06/23 07:49:42;;;;;;;14.10;6.00;;;;;;;28.89;62.98;100661.58;105616;1255;59775;-44
2023/06/23 07:52:09;;;;;;;9.00;5.10;;;;;;;28.83;63.60;100689.10;105783;1256;60106;-44
2023/06/23 07:54:39;;;;;;;8.30;4.80;;;;;;;28.85;64.10;100704.25;105588;1254;71726;-44
2023/06/23 07:57:08;;;;;;;10.00;4.80;;;;;;;28.89;63.60;100686.62;105665;1254;65242;-44
2023/06/23 07:59:35;;;;;;;11.00;5.50;;;;;;;29.00;64.74;100714.77;105591;1254;71430;-43
2023/06/23 08:02:04;;;;;;;10.30;5.10;;;;;;;29.20;62.77;100672.58;105601;1255;59654;-44
2023/06/23 08:04:32;;;;;;;17.60;5.10;;;;;;;29.28;62.69;100673.09;105861;1256;59696;-44
2023/06/23 08:06:59;;;;;;;16.00;5.70;;;;;;;29.41;65.03;100721.42;105745;1254;71866;-44
2023/06/23 08:09:27;;;;;;;16.80;5.00;;;;;;;29.67;60.71;100617.31;105623;1260;65153;-43
2023/06/23 08:11:55;;;;;;;15.00;5.40;;;;;;;29.70;59.31;100594.85;105630;1257;72676;-44
2023/06/23 08:14:22;;;;;;;24.70;5.80;;;;;;;29.67;60.21;100629.40;105639;1253;59668;-44
2023/06/23 08:16:50;;;;;;;17.70;5.60;;;;;;;29.72;60.45;100635.23;105806;1257;59956;-43
2023/06/23 08:19:21;;;;;;;19.80;5.40;;;;;;;29.82;60.28;100627.61;105620;1253;72947;-44
2023/06/23 08:21:49;;;;;;;30.20;6.40;;;;;;;29.94;61.00;100647.05;105603;1260;65113;-44
2023/06/23 08:24:17;;;;;;;23.90;5.10;;;;;;;30.10;60.34;100626.67;105649;1254;72604;-45
2023/06/23 08:26:44;;;;;;;23.90;5.90;;;;;;;30.20;57.65;100552.98;105580;1254;60431;-44
2023/06/23 08:29:12;;;;;;;30.60;6.10;;;;;;;30.21;58.90;100605.66;105612;1258;61291;-44
2023/06/23 08:31:40;;;;;;;20.90;4.90;;;;;;;30.35;57.02;100552.73;105568;1258;72920;-44
2023/06/23 08:34:08;;;;;;;7.40;4.20;;;;;;;30.50;56.54;100547.98;105769;1256;65279;-44
2023/06/23 08:36:36;;;;;;;25.50;5.40;;;;;;;30.53;56.06;100530.25;105670;1255;73216;-44
2023/06/23 08:39:05;;;;;;;12.80;5.00;;;;;;;30.52;55.40;100521.10;105594;1259;60490;-44
2023/06/23 08:41:34;;;;;;;13.70;4.70;;;;;;;30.51;54.82;100499.64;105704;1254;60366;-44
2023/06/23 08:44:01;;;;;;;45.50;6.50;;;;;;;30.43;54.85;100527.55;105644;1254;73785;-45
2023/06/23 08:46:31;;;;;;;31.40;5.20;;;;;;;30.44;54.51;100518.31;105711;1253;67272;-44
2023/06/23 08:49:15;;;;;;;10.80;4.60;;;;;;;30.47;54.19;100504.17;105628;1258;72709;-43
2023/06/23 08:51:43;;;;;;;28.40;5.50;;;;;;;30.59;54.04;100506.98;105924;1256;60574;-44
2023/06/23 08:54:11;;;;;;;31.40;6.40;;;;;;;30.74;54.15;100500.92;105647;1253;60482;-43
2023/06/23 08:56:39;;;;;;;20.80;5.10;;;;;;;30.79;53.24;100466.21;105547;1254;72664;-44
2023/06/23 08:59:06;;;;;;;12.60;4.60;;;;;;;30.76;53.43;100488.61;105614;1253;65673;-44
2023/06/23 09:01:34;;;;;;;14.70;4.60;;;;;;;30.89;55.59;100583.73;105677;1257;71398;-44
2023/06/23 09:04:03;;;;;;;5.20;4.20;;;;;;;31.21;53.15;100456.60;105849;1254;60552;-46
2023/06/23 09:06:32;;;;;;;9.10;4.20;;;;;;;31.31;52.00;100406.98;105854;1256;60414;-44
2023/06/23 09:08:59;;;;;;;8.80;4.50;;;;;;;31.19;52.28;100429.54;105658;1258;72946;-44
2023/06/23 09:11:27;;;;;;;6.10;4.50;;;;;;;30.87;51.24;100396.42;105710;1257;64105;-44
2023/06/23 09:13:55;;;;;;;9.30;4.30;;;;;;;30.60;52.82;100506.03;105677;1259;72201;-44
2023/06/23 09:16:23;;;;;;;12.50;4.60;;;;;;;30.63;53.20;100520.27;105668;1254;60437;-44
2023/06/23 09:18:50;;;;;;;10.90;4.10;;;;;;;30.83;52.33;100468.94;105602;1257;60457;-44
2023/06/23 09:21:20;;;;;;;4.00;3.70;;;;;;;30.95;52.01;100450.41;105610;1254;74282;-44
2023/06/23 09:24:07;;;;;;;7.30;4.10;;;;;;;31.02;50.40;100349.61;105792;1254;65159;-45
2023/06/23 09:26:47;;;;;;;7.20;4.00;;;;;;;31.14;50.43;100364.84;105743;1254;71407;-45
2023/06/23 09:29:22;;;;;;;8.40;4.20;;;;;;;31.45;49.76;100322.90;105714;1253;60498;-45
2023/06/23 09:31:52;;;;;;;9.90;4.10;;;;;;;31.49;49.32;100312.52;105614;1259;60613;-45
2023/06/23 09:34:26;;;;;;;8.40;3.80;;;;;;;31.44;50.67;100415.91;105623;1254;73893;-45
2023/06/23 09:37:11;;;;;;;8.00;4.00;;;;;;;31.59;50.63;100401.80;105771;1257;63978;-45
2023/06/23 09:39:40;;;;;;;10.20;4.50;;;;;;;31.83;48.96;100292.94;105811;1256;71445;-45
2023/06/23 09:42:12;;;;;;;8.30;4.50;;;;;;;31.87;47.67;100194.28;105655;1257;60537;-44
2023/06/23 09:44:48;;;;;;;8.30;4.70;;;;;;;31.85;48.23;100239.80;105737;1254;60450;-46
2023/06/23 09:47:17;;;;;;;10.50;4.10;;;;;;;32.09;48.23;100268.80;105641;1254;72585;-45
2023/06/23 09:49:47;;;;;;;6.70;4.20;;;;;;;32.40;48.15;100251.05;105726;1254;65273;-44
2023/06/23 09:52:25;;;;;;;10.00;4.20;;;;;;;32.78;46.83;100132.38;105578;1259;71481;-44
2023/06/23 09:54:54;;;;;;;9.10;3.70;;;;;;;32.78;45.55;100019.86;105775;1256;60546;-44
2023/06/23 09:57:22;;;;;;;17.70;4.40;;;;;;;32.44;44.26;99916.15;105633;1259;60312;-45
2023/06/23 09:59:51;;;;;;;10.10;4.50;;;;;;;31.86;45.18;100029.22;105856;1254;72726;-44
2023/06/23 10:02:27;;;;;;;5.10;4.50;;;;;;;31.33;45.30;100072.04;105687;1257;63905;-44
2023/06/23 10:05:05;;;;;;;18.40;4.70;;;;;;;30.94;46.32;100193.77;105674;1254;72603;-44
2023/06/23 10:07:33;;;;;;;13.80;5.10;;;;;;;30.57;46.94;100287.05;105851;1254;60471;-44
2023/06/23 10:10:07;;;;;;;10.60;4.10;;;;;;;30.23;47.08;100301.68;105733;1253;60313;-45
2023/06/23 10:12:39;;;;;;;12.30;4.70;;;;;;;29.92;48.37;100413.95;105596;1255;72605;-44
2023/06/23 10:15:09;;;;;;;5.80;4.40;;;;;;;29.83;49.05;100485.99;105728;1254;65273;-45
2023/06/23 10:17:37;;;;;;;8.80;4.90;;;;;;;29.67;49.64;100522.18;105641;1255;72620;-44
2023/06/23 10:20:06;;;;;;;9.60;4.20;;;;;;;29.62;50.50;100564.83;105664;1258;60567;-46
2023/06/23 10:22:34;;;;;;;7.60;4.60;;;;;;;29.91;49.77;100464.61;105890;1254;60463;-44
2023/06/23 10:25:01;;;;;;;15.50;4.80;;;;;;;30.31;49.58;100429.05;105554;1254;72640;-43
2023/06/23 10:27:29;;;;;;;8.90;4.20;;;;;;;30.64;49.74;100417.47;105626;1253;64104;-44
2023/06/23 10:30:00;;;;;;;28.80;5.70;;;;;;;30.72;48.32;100306.45;105839;1254;72612;-44
2023/06/23 10:32:33;;;;;;;21.60;5.20;;;;;;;30.52;49.08;100379.90;105743;1257;60744;-45
2023/06/23 10:35:08;;;;;;;52.70;6.20;;;;;;;30.46;48.86;100374.67;105597;1254;61343;-44
2023/06/23 10:37:36;;;;;;;23.50;4.90;;;;;;;30.29;49.03;100389.58;105850;1254;72574;-45
2023/06/23 10:40:18;;;;;;;13.40;5.50;;;;;;;30.09;49.70;100439.30;105788;1253;64030;-44
2023/06/23 10:42:48;;;;;;;9.20;4.70;;;;;;;29.94;50.39;100481.84;105701;1254;71383;-44
2023/06/23 10:45:16;;;;;;;23.80;4.60;;;;;;;29.99;50.86;100498.25;105608;1258;60451;-45
2023/06/23 10:47:44;;;;;;;22.40;5.30;;;;;;;30.14;51.50;100521.04;105766;1254;60427;-45
2023/06/23 10:50:12;;;;;;;27.30;5.60;;;;;;;30.28;50.68;100446.84;105730;1254;72549;-45
2023/06/23 10:52:42;;;;;;;17.20;4.70;;;;;;;30.41;52.31;100534.45;105670;1257;63941;-44
2023/06/23 10:55:41;;;;;;;12.60;4.80;;;;;;;30.68;51.99;100494.94;105684;1254;72646;-45
2023/06/23 10:58:29;;;;;;;20.60;4.40;;;;;;;31.00;51.04;100431.45;105731;1256;60924;-45
2023/06/23 11:00:59;;;;;;;7.10;4.90;;;;;;;31.18;49.71;100340.21;105682;1257;59729;-44
2023/06/23 11:03:35;;;;;;;10.70;4.50;;;;;;;31.35;50.32;100383.20;105682;1256;74254;-45
2023/06/23 11:06:05;;;;;;;8.70;4.40;;;;;;;31.65;50.02;100354.96;105694;1256;65155;-44
2023/06/23 11:08:37;;;;;;;13.30;4.80;;;;;;;31.81;49.47;100329.83;105694;1254;72385;-43
2023/06/23 11:11:09;;;;;;;9.60;4.40;;;;;;;31.78;48.57;100279.04;105631;1259;60549;-45
2023/06/23 11:13:47;;;;;;;11.50;4.40;;;;;;;31.64;48.66;100274.00;105867;1257;60358;-45
2023/06/23 11:16:17;;;;;;;6.80;4.90;;;;;;;31.47;48.79;100307.86;105794;1256;73797;-45
2023/06/23 11:18:49;;;;;;;9.60;4.70;;;;;;;31.31;48.20;100270.96;105875;1257;65275;-45
2023/06/23 11:21:39;;;;;;;18.30;6.20;;;;;;;31.07;48.87;100333.11;105888;1257;71474;-44
2023/06/23 11:24:09;;;;;;;8.00;4.60;;;;;;;30.90;49.13;100363.80;105633;1254;60603;-44
2023/06/23 11:26:49;;;;;;;6.80;4.30;;;;;;;30.78;49.47;100389.66;105569;1254;60460;-45
2023/06/23 11:29:19;;;;;;;6.20;4.70;;;;;;;30.61;50.31;100441.99;105802;1253;72666;-44
2023/06/23 11:32:06;;;;;;;31.00;9.20;;;;;;;30.65;52.11;100531.88;105761;1255;63886;-44
2023/06/23 11:34:54;;;;;;;13.60;4.80;;;;;;;30.93;52.05;100494.98;105706;1258;71439;-45
2023/06/23 11:37:25;;;;;;;9.10;4.50;;;;;;;31.17;50.20;100368.02;105648;1258;60553;-45
2023/06/23 11:39:54;;;;;;;6.40;4.30;;;;;;;31.27;50.28;100388.27;105757;1253;60552;-43
2023/06/23 11:42:22;;;;;;;7.40;4.30;;;;;;;31.39;50.71;100406.48;105931;1256;73831;-43